Time;durP1;ratioP1;P1;durP2;ratioP2;P2;SDS_P1;SDS_P2;PMS_P1;PMS_P2;Temp;Humidity;BMP_temperature;BMP_pressure;BME280_temperature;BME280_humidity;BME280_pressure;Samples;Min_cycle;Max_cycle;Signal;HPM_P1;HPM_P2
2022/08/26 00:00:33;;;;;;;4.77;4.17;;;17.80;99.90;;;;;;5117062;28;20197;-79
2022/08/26 00:02:59;;;;;;;4.87;4.00;;;17.80;99.90;;;;;;5117308;28;20631;-80
2022/08/26 00:05:25;;;;;;;5.30;4.30;;;17.90;99.90;;;;;;5116609;28;20170;-80
2022/08/26 00:07:51;;;;;;;4.90;3.97;;;17.60;99.90;;;;;;5115026;28;20180;-80
2022/08/26 00:10:18;;;;;;;5.00;3.90;;;17.60;99.90;;;;;;5116152;28;20198;-79
2022/08/26 00:12:44;;;;;;;4.33;3.77;;;17.60;99.90;;;;;;5116310;28;20179;-80
2022/08/26 00:15:13;;;;;;;4.17;3.70;;;17.60;99.90;;;;;;5117286;28;20245;-82
2022/08/26 00:17:39;;;;;;;4.30;3.90;;;17.40;99.90;;;;;;5120595;28;20173;-81
2022/08/26 00:20:08;;;;;;;3.97;3.57;;;17.40;99.90;;;;;;5121271;28;20677;-82
2022/08/26 00:22:34;;;;;;;4.13;3.73;;;17.60;99.90;;;;;;5120219;28;20182;-81
2022/08/26 00:25:00;;;;;;;4.10;3.70;;;;;;;;;;5119502;28;20658;-80
2022/08/26 00:27:25;;;;;;;4.67;3.70;;;17.60;99.90;;;;;;5121158;28;20187;-82
2022/08/26 00:29:52;;;;;;;3.80;3.40;;;;;;;;;;5120647;28;20205;-81
2022/08/26 00:32:17;;;;;;;4.23;3.50;;;17.50;99.90;;;;;;5121326;28;20171;-80
2022/08/26 00:34:43;;;;;;;4.93;3.77;;;17.40;99.90;;;;;;5121153;28;20270;-80
2022/08/26 00:37:09;;;;;;;3.93;3.17;;;17.60;99.90;;;;;;5120744;28;20506;-80
2022/08/26 00:39:35;;;;;;;5.40;4.37;;;;;;;;;;5119040;28;20208;-82
2022/08/26 00:42:01;;;;;;;5.47;4.17;;;17.60;99.90;;;;;;5119612;28;20258;-81
2022/08/26 00:44:26;;;;;;;8.50;4.30;;;17.40;99.90;;;;;;5120998;28;20173;-80
2022/08/26 00:47:00;;;;;;;8.00;4.27;;;17.40;99.90;;;;;;5120871;28;20181;-81
2022/08/26 00:49:43;;;;;;;4.50;3.90;;;17.50;99.90;;;;;;5119937;28;20239;-80
2022/08/26 00:52:15;;;;;;;6.60;4.10;;;17.40;99.90;;;;;;5120472;28;20199;-80
2022/08/26 00:54:47;;;;;;;4.93;4.10;;;17.40;99.90;;;;;;5120138;28;20200;-81
2022/08/26 00:57:16;;;;;;;3.90;3.23;;;17.20;99.90;;;;;;5119918;28;20161;-80
2022/08/26 00:59:46;;;;;;;5.13;3.70;;;16.90;99.90;;;;;;5119937;28;20196;-80
2022/08/26 01:02:12;;;;;;;4.80;4.00;;;17.20;99.90;;;;;;5120609;28;20177;-80
2022/08/26 01:04:38;;;;;;;4.87;3.70;;;17.20;99.90;;;;;;5120879;28;20174;-82
2022/08/26 01:07:05;;;;;;;4.30;3.80;;;17.20;99.90;;;;;;5118294;28;20272;-79
2022/08/26 01:09:32;;;;;;;6.97;3.93;;;17.20;99.90;;;;;;5119352;28;20204;-80
2022/08/26 01:12:00;;;;;;;5.27;3.83;;;17.10;99.90;;;;;;5119694;28;20256;-80
2022/08/26 01:14:31;;;;;;;4.47;4.07;;;16.80;99.90;;;;;;5119526;28;20406;-79
2022/08/26 01:16:57;;;;;;;5.07;3.60;;;16.80;99.90;;;;;;5119612;27;20259;-82
2022/08/26 01:19:29;;;;;;;3.97;3.67;;;16.90;99.90;;;;;;5119846;28;20244;-80
2022/08/26 01:22:06;;;;;;;9.87;4.40;;;16.90;99.90;;;;;;5120166;27;20177;-82
2022/08/26 01:24:32;;;;;;;4.20;3.80;;;16.80;99.90;;;;;;5118840;28;20702;-80
2022/08/26 01:27:03;;;;;;;4.57;4.17;;;16.80;99.90;;;;;;5120201;28;20173;-79
2022/08/26 01:29:32;;;;;;;5.23;3.87;;;17.00;99.90;;;;;;5119220;28;20209;-80
2022/08/26 01:31:58;;;;;;;6.10;4.00;;;16.90;99.90;;;;;;5120524;28;20177;-80
2022/08/26 01:34:28;;;;;;;4.10;3.70;;;17.00;99.90;;;;;;5122934;28;20167;-81
2022/08/26 01:37:00;;;;;;;5.40;3.83;;;16.70;99.90;;;;;;5123780;28;20160;-82
2022/08/26 01:39:27;;;;;;;4.50;3.90;;;;;;;;;;5126520;28;20197;-80
2022/08/26 01:41:55;;;;;;;5.97;3.80;;;16.80;99.90;;;;;;5122899;28;20741;-79
2022/08/26 01:44:24;;;;;;;6.27;3.80;;;16.80;99.90;;;;;;5118736;28;20202;-79
2022/08/26 01:46:51;;;;;;;4.57;3.83;;;16.80;99.90;;;;;;5118159;28;20294;-81
2022/08/26 01:49:19;;;;;;;4.63;3.70;;;17.10;99.90;;;;;;5118331;28;20261;-81
2022/08/26 01:51:47;;;;;;;3.97;3.60;;;16.90;99.90;;;;;;5118994;28;20618;-79
2022/08/26 01:54:14;;;;;;;6.57;3.43;;;16.60;99.90;;;;;;5118892;28;20561;-80
2022/08/26 01:56:40;;;;;;;4.20;3.80;;;16.80;99.90;;;;;;5118155;28;20184;-80
2022/08/26 01:59:09;;;;;;;4.10;3.70;;;17.00;99.90;;;;;;5117048;28;20220;-81
2022/08/26 02:01:35;;;;;;;3.93;3.53;;;16.90;99.90;;;;;;5119869;28;20174;-80
2022/08/26 02:04:04;;;;;;;4.07;3.77;;;16.90;99.90;;;;;;5120083;28;20188;-80
2022/08/26 02:06:31;;;;;;;5.90;3.53;;;16.90;99.90;;;;;;5118201;28;20229;-80
2022/08/26 02:09:00;;;;;;;4.47;3.77;;;16.90;99.90;;;;;;5118082;28;20312;-80
2022/08/26 02:11:26;;;;;;;4.53;3.80;;;17.10;99.90;;;;;;5118057;28;20168;-80
2022/08/26 02:13:56;;;;;;;6.07;4.20;;;16.60;99.90;;;;;;5117758;27;20188;-80
2022/08/26 02:16:26;;;;;;;3.73;3.43;;;16.80;99.90;;;;;;5118012;28;20218;-80
2022/08/26 02:18:54;;;;;;;5.20;3.73;;;16.80;99.90;;;;;;5117170;28;20187;-80
2022/08/26 02:21:20;;;;;;;6.10;3.83;;;16.70;99.90;;;;;;5117712;28;20169;-80
2022/08/26 02:23:46;;;;;;;6.63;3.83;;;16.90;99.90;;;;;;5117530;28;20259;-79
2022/08/26 02:26:13;;;;;;;5.07;3.57;;;16.90;99.90;;;;;;5117733;28;20204;-80
2022/08/26 02:29:01;;;;;;;5.07;3.70;;;17.00;99.90;;;;;;5117274;27;20189;-80
2022/08/26 02:31:26;;;;;;;8.33;3.90;;;17.10;99.90;;;;;;5116485;28;20706;-80
2022/08/26 02:33:52;;;;;;;4.73;3.97;;;16.90;99.90;;;;;;5117655;28;20177;-80
2022/08/26 02:36:21;;;;;;;6.00;4.10;;;16.90;99.90;;;;;;5116017;28;20179;-81
2022/08/26 02:38:46;;;;;;;4.40;3.60;;;17.10;99.90;;;;;;5115483;28;20209;-79
2022/08/26 02:41:12;;;;;;;4.20;3.63;;;17.00;99.90;;;;;;5117418;28;20173;-80
2022/08/26 02:43:38;;;;;;;5.40;3.90;;;16.90;99.90;;;;;;5117618;28;20168;-79
2022/08/26 02:46:04;;;;;;;7.23;3.70;;;16.90;99.90;;;;;;5117410;28;20688;-79
2022/08/26 02:48:30;;;;;;;4.07;3.67;;;17.00;99.90;;;;;;5116438;28;20215;-79
2022/08/26 02:51:00;;;;;;;4.63;3.87;;;16.80;99.90;;;;;;5116564;28;20242;-80
2022/08/26 02:53:27;;;;;;;4.20;3.80;;;16.70;99.90;;;;;;5115635;28;20176;-79
2022/08/26 02:55:52;;;;;;;4.93;3.57;;;16.80;99.90;;;;;;5116028;28;20184;-80
2022/08/26 02:58:19;;;;;;;5.03;3.77;;;;;;;;;;5116508;28;20655;-79
2022/08/26 03:00:46;;;;;;;5.23;4.37;;;16.80;99.90;;;;;;5116412;28;20177;-79
2022/08/26 03:03:14;;;;;;;4.10;3.77;;;16.80;99.90;;;;;;5114968;28;20179;-82
2022/08/26 03:05:40;;;;;;;3.83;3.43;;;16.70;99.90;;;;;;5115278;28;20652;-80
2022/08/26 03:08:06;;;;;;;4.27;3.87;;;16.50;99.90;;;;;;5116207;28;20294;-81
2022/08/26 03:10:31;;;;;;;4.20;3.80;;;16.70;99.90;;;;;;5116613;28;20239;-81
2022/08/26 03:12:58;;;;;;;4.17;3.77;;;16.70;99.90;;;;;;5115102;28;20199;-81
2022/08/26 03:15:25;;;;;;;4.17;3.77;;;16.60;99.90;;;;;;5116226;28;20163;-80
2022/08/26 03:17:51;;;;;;;6.40;3.80;;;;;;;;;;5116145;28;20174;-81
2022/08/26 03:20:17;;;;;;;4.73;3.77;;;16.60;99.90;;;;;;5116474;28;20195;-79
2022/08/26 03:22:43;;;;;;;4.33;3.93;;;16.50;99.90;;;;;;5115076;28;20267;-79
2022/08/26 03:25:12;;;;;;;4.50;3.57;;;16.50;99.90;;;;;;5116219;28;20637;-80
2022/08/26 03:27:38;;;;;;;4.57;4.17;;;16.60;99.90;;;;;;5115911;28;20542;-80
2022/08/26 03:32:49;;;;;;;5.10;4.10;;;16.60;99.90;;;;;;5116589;28;20217;-79
2022/08/26 03:35:15;;;;;;;7.57;4.10;;;16.70;99.90;;;;;;5115309;28;20171;-80
2022/08/26 03:37:42;;;;;;;4.63;4.23;;;;;;;;;;5116422;28;20171;-81
2022/08/26 03:40:09;;;;;;;4.47;4.07;;;16.60;99.90;;;;;;5115319;28;20678;-81
2022/08/26 03:42:40;;;;;;;6.63;4.50;;;16.70;99.90;;;;;;5116202;28;20168;-81
2022/08/26 03:45:07;;;;;;;5.73;3.97;;;16.40;99.90;;;;;;5115924;28;20777;-82
2022/08/26 03:47:33;;;;;;;4.20;3.57;;;16.50;99.90;;;;;;5116953;28;20215;-82
2022/08/26 03:49:59;;;;;;;4.40;4.00;;;16.40;99.90;;;;;;5115626;28;20252;-80
2022/08/26 03:52:25;;;;;;;4.47;3.97;;;16.20;99.90;;;;;;5120580;28;20250;-80
2022/08/26 03:54:51;;;;;;;4.30;3.80;;;;;;;;;;5119280;28;20268;-81
2022/08/26 03:57:17;;;;;;;4.30;3.90;;;16.40;99.90;;;;;;5119194;28;20546;-80
2022/08/26 03:59:43;;;;;;;4.67;3.83;;;;;;;;;;5121132;28;20201;-80
2022/08/26 04:02:09;;;;;;;6.80;3.73;;;16.40;99.90;;;;;;5120770;28;20183;-79
2022/08/26 04:04:34;;;;;;;6.97;3.37;;;16.40;99.90;;;;;;5120375;28;20171;-81
2022/08/26 04:07:00;;;;;;;6.33;3.80;;;16.40;99.90;;;;;;5120620;28;20179;-79
2022/08/26 04:09:26;;;;;;;5.73;4.13;;;16.30;99.90;;;;;;5120097;28;20744;-81
2022/08/26 04:11:52;;;;;;;5.97;4.07;;;16.30;99.90;;;;;;5119242;28;20180;-80
2022/08/26 04:14:22;;;;;;;5.87;3.83;;;16.30;99.90;;;;;;5119592;28;20223;-81
2022/08/26 04:16:48;;;;;;;6.93;3.90;;;16.30;99.90;;;;;;5122355;28;20164;-81
2022/08/26 04:19:15;;;;;;;6.40;4.20;;;16.20;99.90;;;;;;5121613;28;20654;-81
2022/08/26 04:21:42;;;;;;;4.40;3.80;;;16.00;99.90;;;;;;5122172;28;20199;-80
2022/08/26 04:24:09;;;;;;;4.27;3.87;;;16.30;99.90;;;;;;5120669;27;20179;-79
2022/08/26 04:26:36;;;;;;;4.83;4.23;;;16.20;99.90;;;;;;5119699;28;20533;-81
2022/08/26 04:29:14;;;;;;;5.23;3.67;;;16.00;99.90;;;;;;5119479;28;20203;-81
2022/08/26 04:31:40;;;;;;;4.27;3.83;;;16.20;99.90;;;;;;5121431;28;20171;-80
2022/08/26 04:34:07;;;;;;;5.80;4.50;;;16.20;99.90;;;;;;5121930;28;20171;-80
2022/08/26 04:36:33;;;;;;;4.90;4.17;;;16.00;99.90;;;;;;5120273;28;20202;-80
2022/08/26 04:39:01;;;;;;;5.33;4.03;;;16.10;99.90;;;;;;5119986;28;20199;-81
2022/08/26 04:41:27;;;;;;;6.00;3.90;;;16.10;99.90;;;;;;5122571;28;20172;-81
2022/08/26 04:43:53;;;;;;;4.70;4.30;;;16.10;99.90;;;;;;5123284;28;20197;-80
2022/08/26 04:46:21;;;;;;;3.90;3.60;;;16.00;99.90;;;;;;5123096;28;20210;-79
2022/08/26 04:48:50;;;;;;;4.70;4.20;;;16.10;99.90;;;;;;5120775;28;20282;-80
2022/08/26 04:51:16;;;;;;;4.63;3.97;;;15.90;99.90;;;;;;5118377;28;20175;-80
2022/08/26 04:53:42;;;;;;;5.57;4.03;;;16.10;99.90;;;;;;5120419;28;20250;-82
2022/08/26 04:56:08;;;;;;;4.37;3.97;;;16.10;99.90;;;;;;5118496;28;20230;-80
2022/08/26 04:58:34;;;;;;;4.67;3.93;;;16.00;99.90;;;;;;5118181;28;20210;-80
2022/08/26 05:01:00;;;;;;;6.97;3.70;;;16.30;99.90;;;;;;5119677;28;20185;-80
2022/08/26 05:03:26;;;;;;;5.83;3.80;;;16.10;99.90;;;;;;5117890;28;20187;-81
2022/08/26 05:05:53;;;;;;;6.13;3.87;;;16.20;99.90;;;;;;5118485;28;20183;-81
2022/08/26 05:08:21;;;;;;;4.37;3.97;;;16.00;99.90;;;;;;5119366;28;20176;-82
2022/08/26 05:10:51;;;;;;;8.27;4.43;;;16.20;99.90;;;;;;5119371;28;20660;-82
2022/08/26 05:13:19;;;;;;;5.00;4.50;;;16.10;99.90;;;;;;5119702;28;20182;-80
2022/08/26 05:15:45;;;;;;;5.33;4.20;;;16.20;99.90;;;;;;5119294;28;20632;-81
2022/08/26 05:18:13;;;;;;;5.13;4.10;;;16.00;99.90;;;;;;5118903;27;20232;-82
2022/08/26 05:20:41;;;;;;;4.40;4.00;;;16.30;99.90;;;;;;5119233;28;20172;-80
2022/08/26 05:23:07;;;;;;;4.60;3.50;;;16.20;99.90;;;;;;5117833;28;20183;-80
2022/08/26 05:25:40;;;;;;;4.37;3.97;;;16.20;99.90;;;;;;5118498;28;20187;-81
2022/08/26 05:28:07;;;;;;;4.40;3.60;;;16.30;99.90;;;;;;5117641;28;20192;-81
2022/08/26 05:30:35;;;;;;;4.87;4.27;;;16.30;99.90;;;;;;5118043;28;20249;-80
2022/08/26 05:33:01;;;;;;;7.30;3.60;;;16.30;99.90;;;;;;5117784;28;20183;-82
2022/08/26 05:35:30;;;;;;;5.53;3.93;;;16.20;99.90;;;;;;5119543;28;20506;-81
2022/08/26 05:38:01;;;;;;;8.80;4.10;;;16.50;99.90;;;;;;5117608;28;20638;-80
2022/08/26 05:40:27;;;;;;;4.60;4.10;;;16.40;99.90;;;;;;5118864;28;20215;-81
2022/08/26 05:42:53;;;;;;;4.80;4.07;;;16.50;99.90;;;;;;5118690;27;20174;-81
2022/08/26 05:45:22;;;;;;;4.97;3.83;;;16.70;99.90;;;;;;5118431;28;20176;-80
2022/08/26 05:47:49;;;;;;;5.60;4.27;;;16.50;99.90;;;;;;5118957;28;20172;-79
2022/08/26 05:50:20;;;;;;;4.40;3.57;;;16.70;99.90;;;;;;5118821;28;20211;-81
2022/08/26 05:52:47;;;;;;;6.60;3.73;;;16.90;99.90;;;;;;5119067;28;20255;-81
2022/08/26 05:55:13;;;;;;;7.17;3.57;;;16.60;99.90;;;;;;5118212;28;20194;-81
2022/08/26 05:57:38;;;;;;;3.70;3.40;;;16.60;99.90;;;;;;5118705;28;20180;-81
2022/08/26 06:00:04;;;;;;;4.43;4.03;;;16.70;99.90;;;;;;5117238;28;20228;-80
2022/08/26 06:02:30;;;;;;;5.57;3.70;;;16.70;99.90;;;;;;5117046;28;20180;-79
2022/08/26 06:04:56;;;;;;;5.77;3.40;;;16.90;99.90;;;;;;5118577;28;20179;-81
2022/08/26 06:08:09;;;;;;;5.13;3.67;;;16.90;99.90;;;;;;5117496;28;20663;-81
2022/08/26 06:10:11;;;;;;;3.93;3.57;;;16.90;99.90;;;;;;5118145;28;20218;-80
2022/08/26 06:12:37;;;;;;;6.30;4.10;;;17.20;99.90;;;;;;5117356;28;20183;-81
2022/08/26 06:15:03;;;;;;;4.23;3.67;;;17.10;99.90;;;;;;5116648;28;20175;-79
2022/08/26 06:17:30;;;;;;;4.90;3.90;;;17.40;99.90;;;;;;5117880;28;20176;-79
2022/08/26 06:19:57;;;;;;;4.40;3.77;;;17.40;99.90;;;;;;5116297;28;20677;-81
2022/08/26 06:27:51;;;;;;;3.43;3.10;;;;;;;;;;5118303;28;20659;-81
2022/08/26 06:30:18;;;;;;;4.20;3.40;;;17.90;99.90;;;;;;5118186;28;20702;-80
2022/08/26 06:32:44;;;;;;;4.80;4.00;;;18.00;99.90;;;;;;5118545;28;20163;-79
2022/08/26 06:35:10;;;;;;;4.07;3.50;;;18.20;99.90;;;;;;5116903;28;20180;-81
2022/08/26 06:37:36;;;;;;;7.60;3.80;;;18.50;99.90;;;;;;5117585;28;20168;-80
2022/08/26 06:40:03;;;;;;;3.60;3.30;;;18.50;99.90;;;;;;5117796;28;20197;-80
2022/08/26 06:42:29;;;;;;;5.13;3.63;;;18.60;99.90;;;;;;5117620;28;20203;-81
2022/08/26 06:44:55;;;;;;;4.80;3.60;;;18.70;99.90;;;;;;5115897;28;20184;-79
2022/08/26 06:47:21;;;;;;;3.53;3.23;;;19.10;99.90;;;;;;5117759;28;20178;-81
2022/08/26 06:49:46;;;;;;;3.70;3.40;;;19.00;99.90;;;;;;5117195;28;20236;-81
2022/08/26 06:52:12;;;;;;;3.50;3.20;;;19.10;99.90;;;;;;5116157;28;20177;-81
2022/08/26 06:54:41;;;;;;;3.57;3.27;;;19.20;99.90;;;;;;5117698;28;20208;-81
2022/08/26 06:57:08;;;;;;;5.57;3.73;;;19.30;99.90;;;;;;5118004;28;20177;-81
2022/08/26 06:59:34;;;;;;;4.10;3.70;;;19.40;99.90;;;;;;5116369;28;20304;-81
2022/08/26 07:02:01;;;;;;;4.13;3.53;;;19.40;99.90;;;;;;5116383;28;20201;-81
2022/08/26 07:04:27;;;;;;;4.33;3.40;;;19.50;99.90;;;;;;5116699;28;20198;-82
2022/08/26 07:06:53;;;;;;;4.57;3.50;;;19.60;99.90;;;;;;5116422;28;20213;-80
2022/08/26 07:09:24;;;;;;;3.87;3.47;;;19.70;99.90;;;;;;5117493;28;20224;-81
2022/08/26 07:11:51;;;;;;;8.83;3.87;;;19.70;99.90;;;;;;5116310;28;20564;-81
2022/08/26 07:14:17;;;;;;;5.33;3.70;;;19.80;99.90;;;;;;5117867;28;20176;-80
2022/08/26 07:16:43;;;;;;;5.83;3.73;;;19.90;99.90;;;;;;5116445;28;20174;-81
2022/08/26 07:19:09;;;;;;;3.60;3.30;;;19.90;99.90;;;;;;5117756;28;20198;-80
2022/08/26 07:21:35;;;;;;;5.33;3.50;;;19.90;99.90;;;;;;5116396;28;20174;-80
2022/08/26 07:24:02;;;;;;;5.60;3.17;;;19.90;99.90;;;;;;5117954;28;20605;-80
2022/08/26 07:26:29;;;;;;;3.57;3.27;;;19.90;99.90;;;;;;5116229;28;20698;-81
2022/08/26 07:28:57;;;;;;;6.30;3.27;;;19.90;99.90;;;;;;5117287;28;20188;-81
2022/08/26 07:31:24;;;;;;;5.80;3.27;;;19.90;99.90;;;;;;5118238;28;20167;-80
2022/08/26 07:33:50;;;;;;;4.20;3.77;;;19.90;99.90;;;;;;5118473;28;20259;-81
2022/08/26 07:36:18;;;;;;;4.53;3.80;;;19.90;99.90;;;;;;5118086;28;20168;-79
2022/08/26 07:38:44;;;;;;;4.03;3.40;;;19.90;99.90;;;;;;5118836;28;20244;-80
2022/08/26 07:41:14;;;;;;;5.93;3.40;;;19.90;99.90;;;;;;5117758;28;20179;-81
2022/08/26 07:43:40;;;;;;;4.20;3.37;;;19.90;99.90;;;;;;5120585;28;20171;-81
2022/08/26 07:46:06;;;;;;;6.70;3.90;;;20.00;99.90;;;;;;5121313;28;20171;-81
2022/08/26 07:48:33;;;;;;;4.40;3.90;;;20.10;99.90;;;;;;5122003;28;20210;-81
2022/08/26 07:50:59;;;;;;;4.00;3.40;;;20.10;99.90;;;;;;5122641;28;20195;-81
2022/08/26 07:53:25;;;;;;;4.10;3.73;;;20.10;99.90;;;;;;5120051;28;20182;-83
2022/08/26 07:55:51;;;;;;;5.87;3.43;;;20.10;99.90;;;;;;5117625;28;20596;-81
2022/08/26 07:58:17;;;;;;;5.23;3.50;;;20.30;99.90;;;;;;5117496;28;20180;-82
2022/08/26 08:00:43;;;;;;;7.03;3.90;;;20.40;99.90;;;;;;5115943;28;20179;-80
2022/08/26 08:03:10;;;;;;;4.70;3.57;;;20.30;99.90;;;;;;5117008;28;20224;-81
2022/08/26 08:05:36;;;;;;;4.43;4.03;;;20.50;99.90;;;;;;5115734;28;20585;-81
2022/08/26 08:08:05;;;;;;;4.87;4.03;;;20.40;99.90;;;;;;5117192;28;20195;-81
2022/08/26 08:10:33;;;;;;;3.83;3.50;;;20.50;99.90;;;;;;5116116;28;20207;-82
2022/08/26 08:12:59;;;;;;;5.83;3.83;;;20.60;99.90;;;;;;5117257;28;20179;-81
2022/08/26 08:15:27;;;;;;;6.60;3.83;;;20.70;99.90;;;;;;5117394;28;20171;-81
2022/08/26 08:17:53;;;;;;;5.83;4.00;;;20.70;99.90;;;;;;5115507;28;20179;-80
2022/08/26 08:20:20;;;;;;;3.83;3.43;;;20.80;99.90;;;;;;5115406;28;20195;-82
2022/08/26 08:22:47;;;;;;;4.30;3.90;;;20.90;99.90;;;;;;5117278;28;20180;-83
2022/08/26 08:25:13;;;;;;;5.60;3.60;;;21.00;99.90;;;;;;5117884;28;20172;-82
2022/08/26 08:27:41;;;;;;;4.23;3.70;;;21.10;99.90;;;;;;5117540;28;20640;-80
2022/08/26 08:30:08;;;;;;;9.87;3.60;;;21.30;99.90;;;;;;5118630;28;20576;-81
2022/08/26 08:32:37;;;;;;;3.87;3.57;;;21.40;99.90;;;;;;5117080;28;20163;-81
2022/08/26 08:35:04;;;;;;;8.20;4.23;;;21.50;99.90;;;;;;5119844;28;20164;-80
2022/08/26 08:37:30;;;;;;;4.27;3.63;;;21.70;99.90;;;;;;5121724;28;20174;-81
2022/08/26 08:39:55;;;;;;;5.77;3.80;;;21.90;99.90;;;;;;5119877;28;20191;-80
2022/08/26 08:42:46;;;;;;;6.60;3.67;;;22.00;99.90;;;;;;5119931;28;20201;-80
2022/08/26 08:45:24;;;;;;;4.70;4.00;;;22.20;99.90;;;;;;5114463;28;20197;-80
2022/08/26 08:48:03;;;;;;;4.97;4.20;;;22.40;99.90;;;;;;5118276;28;20173;-79
2022/08/26 08:50:43;;;;;;;4.43;3.97;;;22.70;99.90;;;;;;5119853;28;20223;-80
2022/08/26 08:53:18;;;;;;;7.33;3.43;;;23.00;99.90;;;;;;5119980;28;20169;-79
2022/08/26 08:56:15;;;;;;;5.77;3.60;;;23.00;99.90;;;;;;5119709;27;20220;-80
2022/08/26 08:59:04;;;;;;;3.77;3.47;;;23.50;99.90;;;;;;5104347;28;20211;-79
2022/08/26 09:01:37;;;;;;;5.60;3.50;;;23.60;99.90;;;;;;5119871;28;20258;-80
2022/08/26 09:04:34;;;;;;;4.40;4.00;;;23.60;99.90;;;;;;5118252;28;20168;-80
2022/08/26 09:07:03;;;;;;;4.10;3.80;;;23.60;99.90;;;;;;5109949;28;20189;-80
2022/08/26 09:09:53;;;;;;;3.90;3.50;;;23.60;99.90;;;;;;5117824;28;20207;-80
2022/08/26 09:12:24;;;;;;;10.00;4.40;;;23.60;99.90;;;;;;5118381;28;20532;-81
2022/08/26 09:14:51;;;;;;;9.20;4.20;;;23.70;99.90;;;;;;5119291;28;20149;-80
2022/08/26 09:17:34;;;;;;;10.90;4.27;;;23.90;99.90;;;;;;5119861;28;20197;-83
2022/08/26 09:20:26;;;;;;;4.43;4.00;;;24.00;99.90;;;;;;5119347;28;20249;-81
2022/08/26 09:22:52;;;;;;;6.33;4.17;;;24.20;99.90;;;;;;5112167;28;20198;-80
2022/08/26 09:25:18;;;;;;;7.27;3.73;;;24.40;99.90;;;;;;5117998;28;20277;-80
2022/08/26 09:27:49;;;;;;;5.20;3.73;;;24.40;99.90;;;;;;5118915;28;20189;-82
2022/08/26 09:30:39;;;;;;;5.07;4.17;;;24.50;99.90;;;;;;5119225;28;20683;-81
2022/08/26 09:33:10;;;;;;;7.67;4.00;;;24.60;99.90;;;;;;5118172;28;20173;-81
2022/08/26 09:35:39;;;;;;;4.47;3.87;;;24.70;99.90;;;;;;5119359;28;20215;-81
2022/08/26 09:38:25;;;;;;;7.70;3.93;;;24.90;99.90;;;;;;5119032;28;20174;-80
2022/08/26 09:40:57;;;;;;;4.13;3.77;;;24.80;99.90;;;;;;5119172;28;20226;-80
2022/08/26 09:43:23;;;;;;;7.50;3.97;;;25.00;99.90;;;;;;5119763;28;20172;-81
2022/08/26 09:45:55;;;;;;;9.30;3.87;;;25.10;99.90;;;;;;5119350;28;20205;-80
2022/08/26 09:48:36;;;;;;;5.77;3.70;;;25.20;99.90;;;;;;5116522;28;20531;-79
2022/08/26 09:51:05;;;;;;;6.37;3.37;;;25.10;99.90;;;;;;5117821;28;20204;-80
2022/08/26 09:53:35;;;;;;;3.83;3.47;;;25.20;99.90;;;;;;5119232;28;20213;-81
2022/08/26 09:56:16;;;;;;;4.10;3.70;;;25.20;99.90;;;;;;5119236;28;20267;-80
2022/08/26 09:58:45;;;;;;;3.80;3.30;;;25.20;99.90;;;;;;5119372;28;20530;-80
2022/08/26 10:01:23;;;;;;;3.73;3.43;;;25.30;99.90;;;;;;5119072;28;20170;-80
2022/08/26 10:03:50;;;;;;;4.77;3.80;;;25.40;99.90;;;;;;5119395;28;20163;-80
2022/08/26 10:06:15;;;;;;;4.63;3.30;;;25.40;99.90;;;;;;5119541;28;20212;-81
2022/08/26 10:08:44;;;;;;;8.43;3.70;;;25.30;99.90;;;;;;5119198;28;20255;-80
2022/08/26 10:11:18;;;;;;;3.90;3.60;;;25.30;99.90;;;;;;5119065;27;20198;-79
2022/08/26 10:13:49;;;;;;;4.07;3.40;;;25.40;99.90;;;;;;5118283;28;20184;-81
2022/08/26 10:16:22;;;;;;;5.70;3.37;;;25.40;99.90;;;;;;5119854;28;20160;-81
2022/08/26 10:19:08;;;;;;;7.70;4.10;;;25.60;99.90;;;;;;5119529;27;20597;-80
2022/08/26 10:21:45;;;;;;;4.33;3.53;;;25.50;99.90;;;;;;5119772;28;20172;-82
2022/08/26 10:24:19;;;;;;;6.23;4.00;;;25.80;99.90;;;;;;5122481;28;20180;-80
2022/08/26 10:26:49;;;;;;;3.97;3.57;;;26.00;99.90;;;;;;5118975;28;20210;-79
2022/08/26 10:29:21;;;;;;;4.07;3.50;;;26.20;99.90;;;;;;5118748;28;20214;-80
2022/08/26 10:31:55;;;;;;;3.50;3.20;;;26.30;99.90;;;;;;5118895;28;20306;-81
2022/08/26 10:34:21;;;;;;;7.90;3.77;;;26.50;99.90;;;;;;5119207;28;20257;-82
2022/08/26 10:37:03;;;;;;;4.23;3.60;;;26.80;99.90;;;;;;5119550;28;20226;-81
2022/08/26 10:39:38;;;;;;;3.50;3.20;;;27.10;99.90;;;;;;5119859;28;20240;-80
2022/08/26 10:42:26;;;;;;;3.97;3.40;;;27.20;99.90;;;;;;5120206;28;20174;-80
2022/08/26 10:44:55;;;;;;;7.47;3.40;;;27.20;99.90;;;;;;5119739;28;20575;-80
2022/08/26 10:47:35;;;;;;;14.77;4.23;;;27.40;99.90;;;;;;5118849;28;20187;-80
2022/08/26 10:50:02;;;;;;;4.73;3.80;;;27.40;99.90;;;;;;5119682;28;20207;-79
2022/08/26 10:52:33;;;;;;;5.43;3.47;;;27.30;99.90;;;;;;5121313;28;20521;-79
2022/08/26 10:55:08;;;;;;;4.50;3.67;;;27.10;99.90;;;;;;5120496;28;20180;-80
2022/08/26 10:57:59;;;;;;;3.93;3.53;;;27.00;99.90;;;;;;5117044;28;20256;-80
2022/08/26 11:03:24;;;;;;;3.83;3.30;;;28.20;99.90;;;;;;5117970;28;20300;-80
2022/08/26 11:06:15;;;;;;;3.60;3.30;;;28.90;99.90;;;;;;5116814;28;20527;-80
2022/08/26 11:08:55;;;;;;;2.97;2.60;;;29.60;99.90;;;;;;5117544;28;20224;-81
2022/08/26 11:11:39;;;;;;;8.60;3.60;;;29.70;99.90;;;;;;5117802;28;20198;-81
2022/08/26 11:14:09;;;;;;;3.27;2.90;;;30.30;99.90;;;;;;5117984;28;20172;-81
2022/08/26 11:16:46;;;;;;;3.10;2.80;;;30.40;99.90;;;;;;5117616;28;20252;-82
2022/08/26 11:19:37;;;;;;;4.60;2.80;;;30.60;99.90;;;;;;5117063;28;20188;-82
2022/08/26 11:22:04;;;;;;;2.90;2.60;;;30.60;99.90;;;;;;5115816;28;20210;-82
2022/08/26 11:24:51;;;;;;;4.67;3.27;;;30.10;99.90;;;;;;5117258;28;20223;-81
2022/08/26 11:27:25;;;;;;;5.30;3.30;;;30.10;99.90;;;;;;5117418;28;20518;-81
2022/08/26 11:30:05;;;;;;;2.97;2.77;;;29.80;99.90;;;;;;5117104;28;20206;-81
2022/08/26 11:32:33;;;;;;;4.90;3.00;;;29.80;99.90;;;;;;5117209;28;20175;-81
2022/08/26 11:35:07;;;;;;;4.93;3.50;;;30.20;99.90;;;;;;5117058;28;20210;-81
2022/08/26 11:37:38;;;;;;;4.30;3.47;;;30.40;99.90;;;;;;5117298;28;20579;-80
2022/08/26 11:40:10;;;;;;;3.50;3.20;;;29.70;99.90;;;;;;5116837;28;20186;-80
2022/08/26 11:42:49;;;;;;;3.60;3.30;;;28.90;99.90;;;;;;5117558;28;20193;-82
2022/08/26 11:45:18;;;;;;;4.37;2.60;;;28.00;99.90;;;;;;5117362;28;20163;-80
2022/08/26 11:47:45;;;;;;;4.33;2.87;;;28.20;99.90;;;;;;5117423;28;20511;-80
2022/08/26 11:50:22;;;;;;;5.23;2.67;;;29.10;99.90;;;;;;5116959;28;20206;-81
2022/08/26 11:53:05;;;;;;;4.53;2.63;;;29.70;99.90;;;;;;5117357;28;20171;-81
2022/08/26 11:55:34;;;;;;;4.73;3.67;;;30.00;99.90;;;;;;5117183;27;20190;-80
2022/08/26 11:58:03;;;;;;;3.27;2.90;;;29.70;99.90;;;;;;5115772;28;20205;-82
2022/08/26 12:00:38;;;;;;;3.00;2.47;;;29.60;99.90;;;;;;5117900;28;20188;-81
2022/08/26 12:03:07;;;;;;;3.63;2.90;;;29.60;99.90;;;;;;5117404;28;20175;-80
2022/08/26 12:05:42;;;;;;;3.20;2.60;;;29.40;99.90;;;;;;5116460;28;20183;-80
2022/08/26 12:08:12;;;;;;;3.73;3.10;;;29.10;99.90;;;;;;5120248;28;20286;-81
2022/08/26 12:10:38;;;;;;;2.90;2.57;;;29.80;99.90;;;;;;5117708;28;20200;-81
2022/08/26 12:13:05;;;;;;;5.40;2.70;;;30.40;99.90;;;;;;5119481;28;20187;-80
2022/08/26 12:15:32;;;;;;;3.13;2.80;;;30.90;99.90;;;;;;5121706;28;20191;-81
2022/08/26 12:18:27;;;;;;;3.90;2.50;;;31.80;99.90;;;;;;5121919;28;20696;-81
2022/08/26 12:20:55;;;;;;;4.53;2.47;;;31.80;99.90;;;;;;5122514;28;20168;-82
2022/08/26 12:23:40;;;;;;;2.60;2.40;;;31.80;99.90;;;;;;5121208;28;20202;-83
2022/08/26 12:26:21;;;;;;;3.47;2.47;;;31.70;97.60;;;;;;5121732;28;20190;-82
2022/08/26 12:29:09;;;;;;;4.30;2.40;;;31.20;95.50;;;;;;5120910;28;20190;-80
2022/08/26 12:31:38;;;;;;;2.73;2.40;;;31.20;96.90;;;;;;5120841;28;20161;-80
2022/08/26 12:34:07;;;;;;;4.07;2.80;;;31.30;99.90;;;;;;5119668;28;20579;-81
2022/08/26 12:36:45;;;;;;;4.73;2.77;;;31.70;99.90;;;;;;5121132;28;20168;-81
2022/08/26 12:39:25;;;;;;;4.27;3.50;;;32.30;98.70;;;;;;5120212;28;20247;-81
2022/08/26 12:41:53;;;;;;;6.67;3.37;;;32.30;99.90;;;;;;5119075;28;20199;-81
2022/08/26 12:44:36;;;;;;;4.17;3.20;;;32.40;99.90;;;;;;5120203;28;20634;-82
2022/08/26 12:47:09;;;;;;;2.47;2.27;;;32.40;99.90;;;;;;5120341;28;20172;-81
2022/08/26 12:49:38;;;;;;;3.27;2.10;;;32.20;94.10;;;;;;5120305;28;20198;-81
2022/08/26 12:52:05;;;;;;;2.60;2.40;;;32.10;92.20;;;;;;5119164;28;20169;-82
2022/08/26 12:57:27;;;;;;;3.07;2.10;;;32.30;92.60;;;;;;5120222;28;20214;-81
2022/08/26 13:00:13;;;;;;;2.20;2.00;;;32.40;93.80;;;;;;5120274;28;20547;-80
2022/08/26 13:02:39;;;;;;;4.23;2.20;;;32.50;90.70;;;;;;5120013;28;20662;-81
2022/08/26 13:05:24;;;;;;;2.67;2.10;;;32.30;92.70;;;;;;5118335;28;20175;-82
2022/08/26 13:08:13;;;;;;;2.80;2.30;;;32.30;93.00;;;;;;5119353;28;20171;-81
2022/08/26 13:10:44;;;;;;;2.83;1.90;;;32.20;86.90;;;;;;5120351;28;20222;-80
2022/08/26 13:13:09;;;;;;;2.30;2.10;;;32.30;92.60;;;;;;5120670;28;20168;-81
2022/08/26 13:15:35;;;;;;;2.40;2.10;;;32.40;89.70;;;;;;5120221;28;20653;-80
2022/08/26 13:18:02;;;;;;;2.60;2.03;;;32.40;85.60;;;;;;5119798;28;20197;-80